Time;durP1;ratioP1;P1;durP2;ratioP2;P2;SDS_P1;SDS_P2;PMS_P1;PMS_P2;Temp;Humidity;BMP_temperature;BMP_pressure;BME280_temperature;BME280_humidity;BME280_pressure;Samples;Min_cycle;Max_cycle;Signal;HPM_P1;HPM_P2
2023/09/14 00:01:05;;;;;;;14.02;2.30;;;12.50;99.90;;;11.27;100.00;101496.31;4928370;29;20742;-77
2023/09/14 00:03:31;;;;;;;6.35;2.10;;;12.50;99.90;;;11.27;100.00;101485.75;4920550;29;20040;-76
2023/09/14 00:05:56;;;;;;;7.32;1.48;;;12.50;99.90;;;11.26;100.00;101489.31;4930125;29;20525;-77
2023/09/14 00:08:22;;;;;;;15.05;2.35;;;12.50;99.90;;;11.25;100.00;101498.13;4923038;29;20040;-77
2023/09/14 00:10:59;;;;;;;10.00;1.77;;;12.40;99.90;;;11.24;100.00;101503.47;4920957;29;20074;-76
2023/09/14 00:13:24;;;;;;;;;;;12.40;99.90;;;11.15;100.00;101498.53;4921706;29;20032;-77
2023/09/14 00:15:51;;;;;;;4.20;1.40;;;12.40;99.90;;;11.13;100.00;101498.59;4921540;29;19917;-77
2023/09/14 00:18:18;;;;;;;12.38;2.15;;;12.40;99.90;;;11.15;100.00;101503.81;4928213;29;20028;-77
2023/09/14 00:20:46;;;;;;;9.38;1.58;;;12.30;99.90;;;11.13;100.00;101503.00;4927224;29;20541;-77
2023/09/14 00:23:12;;;;;;;6.40;1.20;;;12.40;99.90;;;11.11;100.00;101504.84;4922659;29;20064;-77
2023/09/14 00:25:38;;;;;;;9.02;1.50;;;12.30;99.90;;;11.10;100.00;101509.25;4922002;29;20076;-77
2023/09/14 00:28:04;;;;;;;7.88;1.40;;;12.30;99.90;;;11.12;100.00;101504.75;4924966;29;20497;-77
2023/09/14 00:30:30;;;;;;;9.02;1.40;;;12.30;99.90;;;11.13;100.00;101506.50;4922645;29;20035;-77
2023/09/14 00:32:55;;;;;;;9.35;1.67;;;12.30;99.90;;;11.13;100.00;101511.75;4923721;29;20035;-77
2023/09/14 00:35:26;;;;;;;10.25;1.70;;;12.30;99.90;;;11.12;100.00;101514.44;4920320;29;20051;-76
2023/09/14 00:37:52;;;;;;;9.50;1.70;;;12.30;99.90;;;11.11;100.00;101508.31;4937590;29;20027;-77
2023/09/14 00:40:18;;;;;;;6.82;1.42;;;12.30;99.90;;;11.11;100.00;101508.31;4922338;29;20040;-77
2023/09/14 00:42:52;;;;;;;7.38;1.58;;;12.30;99.90;;;11.08;100.00;101504.03;4910919;29;20036;-77
2023/09/14 00:45:21;;;;;;;14.43;1.77;;;12.20;99.90;;;11.00;100.00;101497.31;4905608;29;20028;-77
2023/09/14 00:47:58;;;;;;;18.10;1.70;;;12.20;99.90;;;10.94;100.00;101505.44;4927672;29;20031;-77
2023/09/14 00:50:26;;;;;;;9.13;1.38;;;12.10;99.90;;;10.87;100.00;101505.66;4926544;29;20115;-77
2023/09/14 00:53:02;;;;;;;7.38;1.63;;;12.00;99.90;;;10.80;100.00;101501.53;4925755;29;20063;-76
2023/09/14 00:55:29;;;;;;;10.23;1.70;;;11.90;99.90;;;10.68;100.00;101496.66;4930856;29;20040;-77
2023/09/14 00:57:57;;;;;;;6.32;1.42;;;11.90;99.90;;;10.63;100.00;101491.56;4926052;29;20131;-77
2023/09/14 01:00:23;;;;;;;8.55;1.38;;;11.80;99.90;;;10.59;100.00;101497.00;4926541;29;20032;-77
2023/09/14 01:02:56;;;;;;;12.02;1.55;;;11.80;99.90;;;10.55;100.00;101488.34;4926610;29;20063;-76
2023/09/14 01:05:26;;;;;;;12.10;1.23;;;11.70;99.90;;;10.51;100.00;101484.06;4938661;28;20032;-77
2023/09/14 01:07:55;;;;;;;8.88;1.55;;;11.70;99.90;;;10.49;100.00;101485.91;4932332;29;20024;-76
2023/09/14 01:10:23;;;;;;;15.63;2.05;;;11.70;99.90;;;10.44;100.00;101479.94;4926524;29;20042;-77
2023/09/14 01:12:49;;;;;;;7.85;1.20;;;11.60;99.90;;;10.39;100.00;101489.78;4925331;29;20461;-76
2023/09/14 01:15:33;;;;;;;8.63;1.40;;;11.60;99.90;;;10.33;100.00;101488.19;4940453;29;20036;-77
2023/09/14 01:18:22;;;;;;;5.03;1.30;;;11.50;99.90;;;10.27;100.00;101491.84;4909936;29;20039;-77
2023/09/14 01:21:24;;;;;;;9.30;1.38;;;11.50;99.90;;;10.22;100.00;101498.19;4911235;29;20063;-77
2023/09/14 01:24:31;;;;;;;7.03;1.52;;;11.40;99.90;;;10.16;100.00;101495.75;4922852;29;20041;-76
2023/09/14 01:26:57;;;;;;;4.15;1.08;;;11.40;99.90;;;10.11;100.00;101500.28;4923994;29;20038;-77
2023/09/14 01:29:22;;;;;;;8.18;1.63;;;11.30;99.90;;;10.09;100.00;101504.78;4925913;29;20032;-77
2023/09/14 01:31:48;;;;;;;10.88;1.63;;;11.30;99.90;;;10.07;100.00;101512.72;4924856;29;20391;-77
2023/09/14 01:34:14;;;;;;;5.28;1.40;;;11.30;99.90;;;10.05;100.00;101518.00;4923457;29;20043;-76
2023/09/14 01:36:55;;;;;;;11.60;1.70;;;11.30;99.90;;;10.05;100.00;101512.75;4925685;29;20032;-76
2023/09/14 01:39:24;;;;;;;9.45;1.48;;;11.20;99.90;;;10.04;100.00;101524.19;4932773;29;20505;-77
2023/09/14 01:41:54;;;;;;;8.32;1.38;;;11.30;99.90;;;10.08;100.00;101514.41;4925323;29;20479;-77
2023/09/14 01:44:25;;;;;;;10.07;1.90;;;11.30;99.90;;;10.10;100.00;101514.38;4924738;29;20020;-77
2023/09/14 01:46:55;;;;;;;4.43;1.23;;;11.30;99.90;;;10.09;100.00;101520.56;4925211;29;20032;-77
2023/09/14 01:49:21;;;;;;;12.85;1.67;;;11.30;99.90;;;10.06;100.00;101527.66;4924681;29;20074;-77
2023/09/14 01:51:46;;;;;;;13.07;1.50;;;11.30;99.90;;;10.04;100.00;101532.09;4914730;29;20442;-77
2023/09/14 01:54:12;;;;;;;9.30;1.30;;;11.20;99.90;;;10.00;100.00;101533.09;4923360;29;20032;-77
2023/09/14 01:56:38;;;;;;;8.40;1.90;;;11.20;99.90;;;9.97;100.00;101541.06;4925193;29;20036;-77
2023/09/14 01:59:09;;;;;;;8.73;1.52;;;11.20;99.90;;;9.93;100.00;101536.81;4915731;29;20038;-77
2023/09/14 02:01:35;;;;;;;5.13;1.50;;;11.10;99.90;;;9.87;100.00;101534.38;4938689;29;20035;-77
2023/09/14 02:04:00;;;;;;;16.75;1.35;;;11.10;99.90;;;9.84;100.00;101548.47;4925398;29;20426;-77
2023/09/14 02:06:26;;;;;;;4.45;1.08;;;11.00;99.90;;;9.84;100.00;101542.34;4924480;29;20039;-77
2023/09/14 02:08:52;;;;;;;6.18;1.27;;;11.10;99.90;;;9.82;100.00;101536.28;4924179;29;20560;-76
2023/09/14 02:11:17;;;;;;;6.82;1.65;;;11.00;99.90;;;9.83;100.00;101549.41;4924243;29;20040;-77
2023/09/14 02:13:43;;;;;;;5.40;1.35;;;11.00;99.90;;;9.80;100.00;101548.63;4926372;29;20083;-77
2023/09/14 02:16:17;;;;;;;8.57;1.30;;;11.00;99.90;;;9.78;100.00;101551.31;4924133;29;20048;-77
2023/09/14 02:18:42;;;;;;;11.27;1.60;;;11.00;99.90;;;9.75;100.00;101551.38;4925732;29;20062;-77
2023/09/14 02:21:08;;;;;;;9.55;1.70;;;11.00;99.90;;;9.76;100.00;101554.88;4924957;29;20291;-77
2023/09/14 02:23:34;;;;;;;12.00;1.33;;;10.90;99.90;;;9.73;100.00;101558.47;4906687;29;20048;-78
2023/09/14 02:25:59;;;;;;;6.28;1.45;;;10.90;99.90;;;9.70;100.00;101566.47;4942073;29;20040;-77
2023/09/14 02:28:30;;;;;;;6.35;1.08;;;10.90;99.90;;;9.65;100.00;101560.44;4924332;29;20394;-77
2023/09/14 02:30:55;;;;;;;3.85;1.13;;;10.90;99.90;;;9.61;100.00;101562.31;4916045;29;20028;-78
2023/09/14 02:33:21;;;;;;;7.18;1.63;;;10.80;99.90;;;9.57;100.00;101565.94;4926217;29;20074;-76
2023/09/14 02:35:50;;;;;;;4.50;1.42;;;10.80;99.90;;;9.54;100.00;101573.91;4925785;29;20032;-77
2023/09/14 02:38:24;;;;;;;6.97;1.48;;;10.80;99.90;;;9.51;100.00;101579.28;4925913;29;20690;-77
2023/09/14 02:40:50;;;;;;;5.15;1.35;;;10.70;99.90;;;9.48;100.00;101574.13;4925415;29;20055;-76
2023/09/14 02:43:16;;;;;;;7.05;1.60;;;10.70;99.90;;;9.45;100.00;101575.03;4924121;29;20040;-77
2023/09/14 02:45:41;;;;;;;4.78;1.63;;;10.70;99.90;;;9.41;100.00;101573.41;4922530;29;20036;-76
2023/09/14 02:48:07;;;;;;;10.50;1.63;;;10.60;99.90;;;9.39;100.00;101569.94;4925432;29;20490;-77
2023/09/14 02:50:38;;;;;;;6.07;1.30;;;10.60;99.90;;;9.35;100.00;101570.06;4940012;29;20043;-76
2023/09/14 02:53:04;;;;;;;8.48;1.90;;;10.60;99.90;;;9.32;100.00;101568.41;4927017;29;20042;-80
2023/09/14 02:55:29;;;;;;;7.80;1.95;;;10.60;99.90;;;9.29;100.00;101573.75;4909835;29;20410;-79
2023/09/14 02:57:55;;;;;;;6.05;1.60;;;10.50;99.90;;;9.25;100.00;101572.13;4924926;29;20397;-80
2023/09/14 03:00:21;;;;;;;21.10;2.00;;;10.50;99.90;;;9.19;100.00;101578.38;4927257;29;20067;-79
2023/09/14 03:02:46;;;;;;;6.07;1.52;;;10.40;99.90;;;9.14;100.00;101577.66;4927211;29;20040;-79
2023/09/14 03:05:19;;;;;;;9.05;2.17;;;10.40;99.90;;;9.08;100.00;101585.72;4941965;29;20043;-78
2023/09/14 03:07:46;;;;;;;6.13;1.90;;;10.30;99.90;;;9.07;100.00;101584.00;4926626;29;20087;-79
2023/09/14 03:10:12;;;;;;;4.47;1.50;;;10.30;99.90;;;9.05;100.00;101591.06;4940599;29;20061;-80
2023/09/14 03:12:38;;;;;;;7.72;1.88;;;10.30;99.90;;;9.01;100.00;101594.66;4914523;29;20044;-78
2023/09/14 03:15:11;;;;;;;12.25;2.25;;;10.30;99.90;;;8.98;100.00;101592.94;4925433;29;20618;-79
2023/09/14 03:17:38;;;;;;;6.18;1.42;;;10.20;99.90;;;8.95;100.00;101600.06;4925804;29;20524;-80
2023/09/14 03:20:07;;;;;;;7.68;1.90;;;10.20;99.90;;;8.91;100.00;101598.41;4908617;29;20032;-79
2023/09/14 03:22:39;;;;;;;17.23;2.13;;;10.10;99.90;;;8.83;100.00;101595.97;4923840;29;20094;-79
2023/09/14 03:25:06;;;;;;;14.93;1.77;;;10.10;99.90;;;8.78;100.00;101606.59;4926355;29;20417;-80
2023/09/14 03:27:32;;;;;;;8.73;2.40;;;10.00;99.90;;;8.74;100.00;101597.06;4940394;29;20098;-79
2023/09/14 03:29:58;;;;;;;7.93;1.80;;;10.00;99.90;;;8.69;100.00;101601.59;4941151;29;20052;-79
2023/09/14 03:32:29;;;;;;;10.77;1.67;;;9.90;99.90;;;8.66;100.00;101593.81;4924279;29;20040;-80
2023/09/14 03:34:54;;;;;;;4.05;1.70;;;9.90;99.90;;;8.62;100.00;101600.88;4909994;29;20091;-79
2023/09/14 03:37:20;;;;;;;9.45;1.77;;;9.90;99.90;;;8.58;100.00;101607.09;4925805;29;20035;-78
2023/09/14 03:39:46;;;;;;;6.72;1.80;;;9.80;99.90;;;8.52;100.00;101601.13;4942080;29;20035;-80
2023/09/14 03:42:12;;;;;;;7.63;1.83;;;9.80;99.90;;;8.46;100.00;101603.91;4924357;29;20032;-78
2023/09/14 03:44:38;;;;;;;10.68;1.88;;;9.80;99.90;;;8.43;100.00;101606.63;4923058;29;20027;-79
2023/09/14 03:47:03;;;;;;;5.28;1.65;;;9.80;99.90;;;8.43;100.00;101607.47;4940445;29;20043;-79
2023/09/14 03:49:34;;;;;;;8.55;1.42;;;9.80;99.90;;;8.47;100.00;101603.03;4930175;29;20453;-80
2023/09/14 03:52:00;;;;;;;8.93;1.60;;;9.70;99.90;;;8.47;100.00;101611.75;4930903;29;20408;-79
2023/09/14 03:54:26;;;;;;;8.23;1.77;;;9.80;99.90;;;8.46;100.00;101609.16;4926555;29;20059;-80
2023/09/14 03:56:52;;;;;;;4.00;1.15;;;9.70;99.90;;;8.46;100.00;101614.41;4924903;29;20123;-79
2023/09/14 03:59:17;;;;;;;7.85;1.80;;;9.80;99.90;;;8.48;100.00;101615.22;4926597;29;20032;-80
2023/09/14 04:01:43;;;;;;;9.55;1.60;;;9.70;99.90;;;8.49;100.00;101614.31;4924474;29;20119;-79
2023/09/14 04:04:14;;;;;;;6.75;1.40;;;9.70;99.90;;;8.48;100.00;101621.34;4924144;29;20051;-79
2023/09/14 04:06:40;;;;;;;4.90;1.27;;;9.80;99.90;;;8.47;100.00;101626.66;4924031;29;20044;-79
2023/09/14 04:09:06;;;;;;;9.45;1.10;;;9.70;99.90;;;8.43;100.00;101625.00;4922783;29;20043;-80
2023/09/14 04:11:32;;;;;;;10.73;1.50;;;9.70;99.90;;;8.39;100.00;101632.88;4926818;29;20028;-80
2023/09/14 04:13:58;;;;;;;6.85;1.40;;;9.60;99.90;;;8.36;100.00;101632.97;4942167;29;20032;-80
2023/09/14 04:16:31;;;;;;;10.80;1.70;;;9.60;99.90;;;8.31;100.00;101632.19;4922340;29;20048;-80
2023/09/14 04:19:00;;;;;;;3.13;1.20;;;9.60;99.90;;;8.30;100.00;101627.00;4924595;29;20494;-80
2023/09/14 04:21:27;;;;;;;8.32;1.50;;;9.50;99.90;;;8.30;100.00;101632.25;4925083;29;20090;-79
2023/09/14 04:23:58;;;;;;;6.82;1.65;;;9.60;99.90;;;8.28;100.00;101639.28;4941502;29;20561;-79
2023/09/14 04:26:26;;;;;;;5.80;1.33;;;9.50;99.90;;;8.27;100.00;101633.19;4932076;29;20096;-79
2023/09/14 04:28:52;;;;;;;10.30;2.25;;;9.50;99.90;;;8.26;100.00;101628.81;4944869;29;20035;-80
2023/09/14 04:31:18;;;;;;;5.70;1.88;;;9.50;99.90;;;8.27;100.00;101627.94;4927780;29;20466;-80
2023/09/14 04:33:43;;;;;;;3.70;1.63;;;9.50;99.90;;;8.27;100.00;101634.91;4927338;29;20044;-79
2023/09/14 04:36:14;;;;;;;6.65;1.75;;;9.50;99.90;;;8.26;100.00;101636.69;4927625;29;20802;-79
2023/09/14 04:38:39;;;;;;;11.43;1.92;;;9.50;99.90;;;8.28;100.00;101636.66;4930777;29;20155;-79
2023/09/14 04:41:05;;;;;;;11.23;1.80;;;9.50;99.90;;;8.29;100.00;101633.97;4926997;29;20698;-79
2023/09/14 04:43:32;;;;;;;6.45;1.55;;;9.50;99.90;;;8.31;100.00;101626.94;4942968;29;20035;-79
2023/09/14 04:46:07;;;;;;;9.40;1.52;;;9.50;99.90;;;8.35;100.00;101640.88;4927947;29;20568;-79
2023/09/14 04:48:33;;;;;;;6.97;2.20;;;9.60;99.90;;;8.39;100.00;101639.91;4914913;29;20127;-79
2023/09/14 04:50:59;;;;;;;6.63;2.03;;;9.60;99.90;;;8.44;100.00;101639.81;4919217;29;20036;-80
2023/09/14 04:53:26;;;;;;;7.35;1.70;;;9.60;99.90;;;8.48;100.00;101646.72;4943000;29;20036;-80
2023/09/14 04:55:57;;;;;;;9.40;1.90;;;9.70;99.90;;;8.52;100.00;101645.75;4926826;29;20118;-79
2023/09/14 04:58:23;;;;;;;11.38;1.67;;;9.60;99.90;;;8.56;100.00;101650.03;4944626;29;20122;-79
2023/09/14 05:00:49;;;;;;;6.95;1.90;;;9.70;99.90;;;8.58;100.00;101645.63;4945765;29;20594;-80
2023/09/14 05:03:16;;;;;;;4.22;1.55;;;9.70;99.90;;;8.61;100.00;101653.41;4926880;29;20526;-80
2023/09/14 05:05:42;;;;;;;7.40;1.60;;;9.80;99.90;;;8.65;100.00;101651.59;4942925;29;20118;-78
2023/09/14 05:08:13;;;;;;;3.70;1.55;;;9.80;99.90;;;8.69;100.00;101654.09;4931286;29;20028;-80
2023/09/14 05:10:39;;;;;;;6.00;1.20;;;9.80;99.90;;;8.75;100.00;101656.59;4930608;29;20063;-79
2023/09/14 05:13:04;;;;;;;13.93;1.70;;;9.80;99.90;;;8.80;100.00;101657.31;4929453;29;20071;-80
2023/09/14 05:15:30;;;;;;;4.65;1.40;;;9.90;99.90;;;8.88;100.00;101662.41;4915443;29;20047;-79
2023/09/14 05:17:56;;;;;;;12.55;1.60;;;10.00;99.90;;;8.90;100.00;101654.47;4945200;29;20028;-80
2023/09/14 05:20:22;;;;;;;7.88;1.83;;;10.00;99.90;;;8.97;100.00;101672.69;4927614;29;20086;-79
2023/09/14 05:22:47;;;;;;;8.85;1.67;;;10.10;99.90;;;9.07;100.00;101669.81;4943987;29;20055;-80
2023/09/14 05:25:18;;;;;;;7.20;1.40;;;10.20;99.90;;;9.18;100.00;101666.03;4928017;29;20173;-80
2023/09/14 05:27:44;;;;;;;7.68;1.77;;;10.30;99.90;;;9.28;100.00;101671.88;4934848;29;20075;-80
2023/09/14 05:30:10;;;;;;;7.38;1.55;;;10.40;99.90;;;9.43;100.00;101675.88;4945073;29;20040;-79
2023/09/14 05:32:37;;;;;;;6.70;1.50;;;10.50;99.90;;;9.54;100.00;101668.56;4928464;29;20505;-80
2023/09/14 05:35:06;;;;;;;6.22;1.63;;;10.60;99.90;;;9.68;100.00;101665.56;4929769;29;20039;-81
2023/09/14 05:37:34;;;;;;;8.35;1.77;;;10.70;99.90;;;9.91;100.00;101669.31;4909463;29;20070;-78
2023/09/14 05:40:00;;;;;;;7.47;1.65;;;10.90;99.90;;;10.13;100.00;101677.44;4927176;29;20038;-77
2023/09/14 05:42:25;;;;;;;10.23;2.38;;;11.10;99.90;;;10.30;100.00;101669.91;4924787;29;20557;-78
2023/09/14 05:44:51;;;;;;;10.05;1.60;;;11.30;99.90;;;10.52;100.00;101679.78;4928015;29;20457;-78
2023/09/14 05:47:17;;;;;;;7.60;2.08;;;11.40;99.90;;;10.82;100.00;101678.84;4928677;29;20035;-78
2023/09/14 05:49:52;;;;;;;13.10;1.90;;;11.70;99.90;;;12.41;100.00;101692.56;4926666;29;20024;-78
2023/09/14 05:52:18;;;;;;;12.15;2.00;;;12.10;99.90;;;12.49;100.00;101681.72;4939961;29;20047;-78
2023/09/14 05:54:44;;;;;;;8.60;1.90;;;12.50;99.90;;;12.75;100.00;101680.66;4925076;29;20039;-78
2023/09/14 05:57:09;;;;;;;10.65;1.90;;;12.70;99.90;;;12.79;100.00;101678.75;4944298;29;20040;-78
2023/09/14 05:59:35;;;;;;;9.55;1.50;;;12.90;99.90;;;12.69;100.00;101680.91;4928101;29;20036;-78
2023/09/14 06:02:08;;;;;;;10.82;1.67;;;13.10;99.90;;;12.71;100.00;101690.47;4943927;29;20039;-78
2023/09/14 06:04:35;;;;;;;13.77;2.13;;;13.20;99.90;;;12.72;100.00;101684.28;4927465;29;20042;-78
2023/09/14 06:07:01;;;;;;;7.05;1.33;;;13.20;99.90;;;12.74;100.00;101686.84;4925509;29;20528;-78
2023/09/14 06:09:27;;;;;;;9.13;1.83;;;13.40;99.90;;;13.34;100.00;101700.28;4941658;29;20040;-78
2023/09/14 06:12:01;;;;;;;6.00;1.60;;;13.70;99.90;;;14.59;99.16;101719.41;4928560;29;20021;-78
2023/09/14 06:14:27;;;;;;;7.45;1.40;;;14.20;99.90;;;15.14;96.30;101727.31;4942485;29;20042;-78
2023/09/14 06:16:53;;;;;;;6.35;1.50;;;14.60;99.90;;;15.72;91.45;101734.16;4928056;29;20035;-78
2023/09/14 06:19:19;;;;;;;6.13;1.55;;;15.10;99.90;;;16.31;87.24;101741.66;4943079;29;20038;-78
2023/09/14 06:21:50;;;;;;;7.40;1.30;;;15.40;99.90;;;15.84;86.74;101740.59;4944074;29;20036;-77
2023/09/14 06:24:17;;;;;;;5.68;1.35;;;15.70;99.90;;;17.19;82.44;101762.41;4926832;29;20043;-78
2023/09/14 06:26:44;;;;;;;9.50;1.80;;;16.00;99.90;;;16.69;81.43;101757.28;4941388;29;20032;-78
2023/09/14 06:29:13;;;;;;;9.13;1.20;;;16.20;99.90;;;17.11;81.14;101769.97;4927230;29;20056;-78
2023/09/14 06:31:43;;;;;;;7.32;1.23;;;16.60;99.90;;;18.20;75.47;101783.94;4925963;29;20039;-79
2023/09/14 06:34:09;;;;;;;6.65;1.20;;;16.80;99.90;;;17.55;76.87;101778.97;4926649;29;20038;-78
2023/09/14 06:36:34;;;;;;;10.40;1.13;;;17.00;99.90;;;17.88;75.71;101785.91;4966734;23;20039;-78
2023/09/14 06:39:01;;;;;;;5.10;1.33;;;17.00;99.90;;;16.75;77.07;101780.88;4935581;29;20143;-79
2023/09/14 06:41:34;;;;;;;5.50;1.05;;;16.80;99.90;;;18.08;76.75;101798.91;4937027;29;20046;-79
2023/09/14 06:43:59;;;;;;;8.48;1.10;;;17.50;99.90;;;22.22;65.90;101839.75;4937294;28;20544;-78
2023/09/14 06:46:25;;;;;;;6.95;1.10;;;19.00;99.90;;;24.79;58.91;101856.03;4948476;28;20039;-79
2023/09/14 06:48:50;;;;;;;7.68;1.25;;;20.70;99.90;;;26.31;54.35;101877.97;4930129;29;20812;-79
2023/09/14 06:51:16;;;;;;;3.97;1.20;;;22.20;99.90;;;27.46;52.39;101894.78;4947802;29;20028;-79
2023/09/14 06:53:42;;;;;;;4.82;1.10;;;23.40;99.90;;;27.87;50.67;101909.53;4945609;29;20058;-79
2023/09/14 06:56:16;;;;;;;2.10;0.80;;;24.20;99.90;;;28.25;49.38;101920.13;4946051;29;20043;-78
2023/09/14 06:58:42;;;;;;;6.05;1.23;;;24.90;99.90;;;28.91;48.41;101929.53;4932539;29;20078;-78
2023/09/14 07:01:07;;;;;;;4.90;1.38;;;25.60;99.90;;;29.38;47.41;101939.88;4948532;29;20042;-79
2023/09/14 07:03:35;;;;;;;6.07;1.10;;;26.30;99.90;;;29.67;46.82;101944.81;4948390;29;20489;-79
2023/09/14 07:06:07;;;;;;;5.13;1.20;;;27.00;99.90;;;30.03;46.25;101958.13;4945478;28;20105;-78
2023/09/14 07:08:32;;;;;;;2.30;0.95;;;27.30;99.90;;;29.45;46.66;101957.19;4938878;29;20054;-78
2023/09/14 07:10:58;;;;;;;3.17;1.08;;;27.70;99.90;;;29.76;46.00;101962.88;4964684;28;20437;-78
2023/09/14 07:13:24;;;;;;;4.05;1.10;;;27.90;99.90;;;29.47;46.59;101963.28;4931501;29;20043;-78
2023/09/14 07:15:50;;;;;;;5.35;1.05;;;28.30;99.90;;;30.13;45.72;101982.38;4930101;29;20038;-78
2023/09/14 07:18:31;;;;;;;6.18;0.98;;;28.70;99.90;;;30.30;44.66;101994.97;4947111;29;20035;-78
2023/09/14 07:21:02;;;;;;;4.93;1.50;;;29.40;98.40;;;30.61;44.64;101997.81;4938467;29;20039;-79
2023/09/14 07:23:31;;;;;;;3.50;0.93;;;29.70;98.30;;;29.64;45.65;101988.59;4936181;29;20054;-79
2023/09/14 07:25:57;;;;;;;3.70;0.95;;;29.30;96.70;;;28.67;46.95;101988.00;4946798;29;20121;-79
2023/09/14 07:28:22;;;;;;;6.38;1.10;;;28.90;96.90;;;28.52;46.99;101992.31;4953506;28;20027;-78
2023/09/14 07:30:54;;;;;;;4.63;1.10;;;28.60;96.90;;;28.51;46.70;101999.59;4945138;29;20035;-78
2023/09/14 07:33:21;;;;;;;3.72;1.00;;;28.60;97.90;;;28.55;46.45;101995.56;4945178;29;20032;-79
2023/09/14 07:35:47;;;;;;;6.28;1.15;;;28.70;98.60;;;28.71;46.54;102004.81;4932081;29;20486;-79
2023/09/14 07:38:13;;;;;;;3.28;0.98;;;28.30;96.70;;;26.68;49.18;101978.94;4944685;29;20055;-78
2023/09/14 07:40:40;;;;;;;2.28;1.00;;;27.60;97.60;;;25.79;50.73;101958.41;4928999;28;21238;-77
2023/09/14 07:43:09;;;;;;;4.50;1.00;;;26.60;98.30;;;24.77;52.29;101948.59;4936573;29;20038;-78
2023/09/14 07:45:35;;;;;;;6.22;1.25;;;25.90;99.50;;;25.05;52.66;101948.84;4943923;28;20035;-79
2023/09/14 07:48:04;;;;;;;4.03;1.20;;;25.90;99.90;;;25.87;52.01;101942.34;4929753;28;20540;-78
2023/09/14 07:50:42;;;;;;;3.08;1.00;;;26.70;99.90;;;27.08;50.65;101962.41;4943790;29;20097;-78
2023/09/14 07:53:09;;;;;;;3.88;1.20;;;27.70;99.90;;;28.04;48.73;101988.19;4929648;29;20031;-79
2023/09/14 07:55:38;;;;;;;2.33;0.90;;;28.40;98.00;;;28.02;47.29;102000.00;4942261;29;20035;-79
2023/09/14 07:58:07;;;;;;;3.83;1.20;;;28.80;98.00;;;28.26;48.05;102003.94;4947424;28;20031;-79
2023/09/14 08:00:35;;;;;;;5.97;1.38;;;28.90;96.70;;;27.91;47.36;102000.25;4943678;29;20039;-79
2023/09/14 08:03:02;;;;;;;3.67;1.33;;;29.10;97.20;;;28.23;47.71;102013.22;4945475;28;20027;-79
2023/09/14 08:05:33;;;;;;;5.63;0.90;;;29.20;96.10;;;28.26;46.43;102028.31;4933161;29;20090;-79
2023/09/14 08:07:59;;;;;;;5.97;1.27;;;29.40;96.90;;;28.24;47.65;102016.78;4930248;29;20095;-79
2023/09/14 08:10:25;;;;;;;6.03;1.08;;;29.60;96.90;;;28.74;46.95;102021.56;4945889;29;20043;-79
2023/09/14 08:12:50;;;;;;;6.60;1.20;;;29.90;96.40;;;28.88;46.16;102032.81;4935380;29;20031;-79
2023/09/14 08:15:16;;;;;;;5.07;1.15;;;29.80;95.60;;;28.56;46.95;102028.91;4945225;29;20035;-79
2023/09/14 08:17:44;;;;;;;5.13;1.20;;;30.00;96.10;;;28.65;46.45;102044.22;4945378;29;20064;-78
2023/09/14 08:20:17;;;;;;;4.90;1.10;;;30.20;95.10;;;29.08;45.28;102055.16;4944838;29;20437;-79
2023/09/14 08:22:44;;;;;;;5.18;1.20;;;30.40;95.50;;;29.06;45.67;102052.59;4938285;29;20066;-78
2023/09/14 08:25:10;;;;;;;5.72;0.82;;;30.20;94.90;;;28.60;46.39;102046.56;4934972;29;20397;-79
2023/09/14 08:27:38;;;;;;;3.53;1.00;;;30.20;94.70;;;28.74;45.33;102062.22;4945534;29;20028;-79
2023/09/14 08:30:15;;;;;;;5.15;1.15;;;29.90;94.90;;;28.48;45.72;102062.22;4926989;29;20557;-78
2023/09/14 08:32:40;;;;;;;5.15;1.30;;;29.80;96.00;;;28.13;47.41;102050.38;4929243;29;20035;-79
2023/09/14 08:35:36;;;;;;;2.97;0.77;;;29.60;95.50;;;28.08;46.95;102050.00;4943800;29;20027;-78
2023/09/14 08:38:18;;;;;;;3.97;1.00;;;29.50;96.30;;;28.02;46.52;102047.91;4939501;28;20043;-78
2023/09/14 08:40:45;;;;;;;4.97;1.27;;;28.90;95.90;;;27.14;48.06;102048.31;4935652;29;20058;-78
2023/09/14 08:43:20;;;;;;;4.57;1.17;;;28.60;96.70;;;26.98;48.90;102038.16;4927580;29;20031;-79
2023/09/14 08:45:47;;;;;;;4.18;1.15;;;28.40;96.90;;;26.69;49.72;102032.81;4946658;29;20859;-79
2023/09/14 08:48:22;;;;;;;5.45;0.95;;;28.10;98.40;;;26.64;51.22;102018.91;4931231;29;20038;-79
2023/09/14 08:50:48;;;;;;;5.45;1.10;;;27.90;97.30;;;26.66;50.09;102029.56;4944223;29;20043;-78
2023/09/14 08:53:16;;;;;;;4.43;1.10;;;27.80;98.30;;;26.62;50.61;102022.75;4930250;29;20114;-78
2023/09/14 08:55:50;;;;;;;6.07;1.30;;;27.10;97.20;;;24.86;51.59;102006.22;4942710;29;20065;-78
2023/09/14 08:58:18;;;;;;;4.18;1.20;;;25.90;97.70;;;23.93;53.71;101988.94;4946683;29;20039;-78
2023/09/14 09:00:51;;;;;;;3.28;1.00;;;25.30;99.90;;;24.03;55.25;101972.03;4944303;28;20039;-79
2023/09/14 09:03:17;;;;;;;4.60;1.38;;;25.00;99.90;;;24.02;54.67;101978.41;4935929;29;20028;-79
2023/09/14 09:05:43;;;;;;;3.45;1.17;;;24.80;99.90;;;23.92;55.57;101979.16;4932328;29;20027;-79
2023/09/14 09:08:20;;;;;;;3.55;1.35;;;24.60;99.90;;;23.71;54.69;101973.72;4946651;29;20114;-78
2023/09/14 09:10:47;;;;;;;4.55;1.02;;;24.20;99.90;;;23.20;54.70;101978.84;4948483;28;20030;-79
2023/09/14 09:13:13;;;;;;;5.95;1.15;;;23.80;99.90;;;22.70;58.20;101958.53;4947962;29;20039;-78
2023/09/14 09:15:39;;;;;;;7.75;1.40;;;23.40;99.90;;;22.32;58.04;101953.47;4946426;29;20038;-78
2023/09/14 09:18:11;;;;;;;4.20;1.20;;;23.10;99.90;;;22.16;59.76;101955.56;4963839;28;20115;-78
2023/09/14 09:20:41;;;;;;;9.20;1.42;;;22.90;99.90;;;22.02;60.02;101960.16;4947667;29;20040;-79
2023/09/14 09:23:08;;;;;;;7.13;1.50;;;22.80;99.90;;;22.07;60.73;101952.63;4938052;29;20043;-79
2023/09/14 09:25:54;;;;;;;2.67;1.02;;;22.70;99.90;;;21.81;58.23;101951.88;4932238;29;20040;-79
2023/09/14 09:28:32;;;;;;;3.20;1.35;;;22.40;99.90;;;21.34;59.53;101947.34;4931036;29;20107;-79
2023/09/14 09:31:01;;;;;;;3.22;1.05;;;22.10;99.90;;;21.08;60.31;101942.06;4946978;28;20035;-79
2023/09/14 09:33:47;;;;;;;4.38;1.27;;;21.90;99.90;;;21.07;61.74;101943.88;4947623;29;20028;-78
2023/09/14 09:36:19;;;;;;;1.90;1.10;;;21.90;99.90;;;21.06;62.22;101936.81;4946586;29;20027;-79
2023/09/14 09:38:49;;;;;;;2.67;0.93;;;21.80;99.90;;;20.90;61.55;101944.22;4948547;28;20087;-79
2023/09/14 09:41:15;;;;;;;4.05;1.00;;;21.60;99.90;;;20.58;61.54;101939.34;4947140;29;20027;-79
2023/09/14 09:43:49;;;;;;;4.50;1.40;;;21.40;99.90;;;20.13;61.82;101928.13;4946184;28;20039;-77
2023/09/14 09:46:17;;;;;;;3.05;1.08;;;21.20;99.90;;;20.21;62.49;101925.75;4932301;29;20115;-79
2023/09/14 09:48:43;;;;;;;4.15;1.42;;;21.00;99.90;;;20.19;63.80;101919.66;4946871;29;20027;-79
2023/09/14 09:51:15;;;;;;;8.85;1.42;;;21.10;99.90;;;20.33;63.65;101926.75;4947011;29;20030;-78
2023/09/14 09:54:16;;;;;;;5.57;1.38;;;21.20;99.90;;;20.38;60.60;101932.63;4944006;28;20027;-77
2023/09/14 09:56:52;;;;;;;4.95;1.20;;;21.10;99.90;;;20.24;61.73;101932.75;4933010;29;20045;-78
2023/09/14 09:59:18;;;;;;;4.53;1.20;;;21.00;99.90;;;19.96;62.42;101937.28;4946090;29;20032;-77
2023/09/14 10:01:47;;;;;;;4.45;1.48;;;20.90;99.90;;;19.93;62.12;101934.81;4946231;29;20152;-77
2023/09/14 10:04:19;;;;;;;2.03;0.90;;;20.70;99.90;;;19.84;63.60;101922.06;4926559;29;20039;-77
2023/09/14 10:07:23;;;;;;;3.55;1.23;;;20.70;99.90;;;19.78;63.64;101914.44;4942913;29;20031;-77
2023/09/14 10:09:55;;;;;;;2.88;1.30;;;20.70;99.90;;;19.98;62.77;101926.50;4934978;29;20036;-77
2023/09/14 10:12:38;;;;;;;2.72;1.20;;;20.90;99.90;;;20.22;62.82;101930.16;4933164;29;20035;-78
2023/09/14 10:19:51;;;;;;;;;;;;;;;;;;;;;
2023/09/14 10:23:01;;;;;;;4.72;1.10;;;21.40;99.90;;;20.76;60.75;101931.81;4799409;29;20568;-77
2023/09/14 10:25:59;;;;;;;4.22;1.23;;;21.50;99.90;;;20.82;60.06;101933.19;4795924;29;20050;-77